Aviation Digital Data Service (ADDS)

Output produced by METARs form (1046 UTC 30 March 2017)
found at http://aviationweather.gov/adds/metars/
 
KDFW 300901Z 3009/3112 28012KT P6SM FEW050 SCT250 
     FM301500 27011KT P6SM FEW250 
     FM310000 22008KT P6SM SCT250